Terminal Aerodrome Forecast
Issued by NWS Wilmington, NC

Home | Current Version | Previous Version | Text Only | Print | Product List | Glossary On
Versions: 1 2 3 4 5 6 7 8 9 10 11 12 13 14
000
FTUS42 KILM 251122
TAFILM
TAF
KILM 251122Z 2512/2612 26005KT P6SM SCT020 BKN070
      TEMPO 2512/2515 BKN020
     FM251500 25007KT P6SM VCTS SCT030CB
     FM252100 VRB03KT P6SM VCTS BKN035CB
      TEMPO 2521/2601 4SM -TSRA OVC025CB
     FM260900 30004KT P6SM VCSH OVC040=

USA.gov is the U.S. government's official web portal to all federal, state and local government web resources and services.